sensor_id;sensor_type;location;lat;lon;timestamp;pressure;altitude;pressure_sealevel;temperature;humidity
76358;BME280;65185;21.060;105.826;2024-03-08T00:00:41;101744.06;;;20.51;100.00
76358;BME280;65185;21.060;105.826;2024-03-08T00:03:09;101757.25;;;20.50;100.00
76358;BME280;65185;21.060;105.826;2024-03-08T00:05:36;101758.97;;;20.52;100.00
76358;BME280;65185;21.060;105.826;2024-03-08T00:08:06;101759.00;;;20.51;100.00
76358;BME280;65185;21.060;105.826;2024-03-08T00:10:36;101755.50;;;20.50;100.00
76358;BME280;65185;21.060;105.826;2024-03-08T00:13:02;101765.16;;;20.50;100.00
76358;BME280;65185;21.060;105.826;2024-03-08T00:15:30;101772.28;;;20.46;100.00
76358;BME280;65185;21.060;105.826;2024-03-08T00:17:58;101771.34;;;20.49;100.00
76358;BME280;65185;21.060;105.826;2024-03-08T00:20:25;101770.59;;;20.44;100.00
76358;BME280;65185;21.060;105.826;2024-03-08T00:22:51;101779.47;;;20.41;100.00
76358;BME280;65185;21.060;105.826;2024-03-08T00:25:18;101786.44;;;20.42;100.00
76358;BME280;65185;21.060;105.826;2024-03-08T00:27:45;101798.00;;;20.37;100.00
76358;BME280;65185;21.060;105.826;2024-03-08T00:30:14;101799.81;;;20.35;100.00
76358;BME280;65185;21.060;105.826;2024-03-08T00:32:41;101798.09;;;20.34;100.00
76358;BME280;65185;21.060;105.826;2024-03-08T00:35:08;101806.69;;;20.40;100.00
76358;BME280;65185;21.060;105.826;2024-03-08T00:37:36;101793.63;;;20.37;100.00
76358;BME280;65185;21.060;105.826;2024-03-08T00:40:03;101809.34;;;20.39;100.00
76358;BME280;65185;21.060;105.826;2024-03-08T00:42:30;101813.84;;;20.35;100.00
76358;BME280;65185;21.060;105.826;2024-03-08T00:44:57;101827.06;;;20.34;100.00
76358;BME280;65185;21.060;105.826;2024-03-08T00:47:24;101834.97;;;20.34;100.00
76358;BME280;65185;21.060;105.826;2024-03-08T00:49:50;101835.84;;;20.34;100.00
76358;BME280;65185;21.060;105.826;2024-03-08T00:52:17;101843.69;;;20.36;100.00
76358;BME280;65185;21.060;105.826;2024-03-08T00:54:44;101844.56;;;20.36;100.00
76358;BME280;65185;21.060;105.826;2024-03-08T00:57:11;101847.03;;;20.41;100.00
76358;BME280;65185;21.060;105.826;2024-03-08T00:59:41;101852.31;;;20.41;100.00
76358;BME280;65185;21.060;105.826;2024-03-08T01:02:07;101857.47;;;20.44;100.00
76358;BME280;65185;21.060;105.826;2024-03-08T01:04:36;101861.81;;;20.46;100.00
76358;BME280;65185;21.060;105.826;2024-03-08T01:07:03;101862.63;;;20.48;100.00
76358;BME280;65185;21.060;105.826;2024-03-08T01:09:30;101870.63;;;20.44;100.00
76358;BME280;65185;21.060;105.826;2024-03-08T01:11:56;101873.25;;;20.45;100.00
76358;BME280;65185;21.060;105.826;2024-03-08T01:14:24;101875.06;;;20.43;100.00
76358;BME280;65185;21.060;105.826;2024-03-08T01:16:57;101877.81;;;20.39;100.00
76358;BME280;65185;21.060;105.826;2024-03-08T01:19:23;101881.34;;;20.38;100.00
76358;BME280;65185;21.060;105.826;2024-03-08T01:21:50;101884.00;;;20.38;100.00
76358;BME280;65185;21.060;105.826;2024-03-08T01:24:17;101885.75;;;20.37;100.00
76358;BME280;65185;21.060;105.826;2024-03-08T01:26:46;101887.56;;;20.35;100.00
76358;BME280;65185;21.060;105.826;2024-03-08T01:29:13;101884.88;;;20.37;100.00
76358;BME280;65185;21.060;105.826;2024-03-08T01:31:40;101891.88;;;20.38;100.00
76358;BME280;65185;21.060;105.826;2024-03-08T01:34:06;101891.00;;;20.37;100.00
76358;BME280;65185;21.060;105.826;2024-03-08T01:36:33;101894.59;;;20.35;100.00
76358;BME280;65185;21.060;105.826;2024-03-08T01:39:00;101892.72;;;20.38;100.00
76358;BME280;65185;21.060;105.826;2024-03-08T01:41:26;101903.19;;;20.41;100.00
76358;BME280;65185;21.060;105.826;2024-03-08T01:43:55;101899.78;;;20.38;100.00
76358;BME280;65185;21.060;105.826;2024-03-08T01:46:22;101906.75;;;20.39;100.00
76358;BME280;65185;21.060;105.826;2024-03-08T01:48:49;101905.09;;;20.36;100.00
76358;BME280;65185;21.060;105.826;2024-03-08T01:51:19;101907.72;;;20.36;100.00
76358;BME280;65185;21.060;105.826;2024-03-08T01:53:47;101905.06;;;20.38;100.00
76358;BME280;65185;21.060;105.826;2024-03-08T01:56:14;101912.91;;;20.39;100.00
76358;BME280;65185;21.060;105.826;2024-03-08T01:58:44;101908.53;;;20.38;100.00
76358;BME280;65185;21.060;105.826;2024-03-08T02:01:13;101912.94;;;20.38;100.00
76358;BME280;65185;21.060;105.826;2024-03-08T02:03:45;101917.38;;;20.36;100.00
76358;BME280;65185;21.060;105.826;2024-03-08T02:06:12;101918.25;;;20.36;100.00
76358;BME280;65185;21.060;105.826;2024-03-08T02:08:46;101917.38;;;20.36;100.00
76358;BME280;65185;21.060;105.826;2024-03-08T02:11:13;101921.91;;;20.31;100.00
76358;BME280;65185;21.060;105.826;2024-03-08T02:13:41;101924.50;;;20.32;100.00
76358;BME280;65185;21.060;105.826;2024-03-08T02:16:09;101920.13;;;20.31;100.00
76358;BME280;65185;21.060;105.826;2024-03-08T02:18:36;101922.81;;;20.30;100.00
76358;BME280;65185;21.060;105.826;2024-03-08T02:21:06;101919.25;;;20.32;100.00
76358;BME280;65185;21.060;105.826;2024-03-08T02:23:34;101919.09;;;20.37;100.00
76358;BME280;65185;21.060;105.826;2024-03-08T02:26:01;101923.28;;;20.44;100.00
76358;BME280;65185;21.060;105.826;2024-03-08T02:28:28;101933.53;;;20.56;100.00
76358;BME280;65185;21.060;105.826;2024-03-08T02:30:55;101922.28;;;20.49;100.00
76358;BME280;65185;21.060;105.826;2024-03-08T02:33:22;101915.50;;;20.41;100.00
76358;BME280;65185;21.060;105.826;2024-03-08T02:35:50;101923.34;;;20.42;100.00
76358;BME280;65185;21.060;105.826;2024-03-08T02:38:18;101925.03;;;20.45;100.00
76358;BME280;65185;21.060;105.826;2024-03-08T02:40:46;101920.72;;;20.42;100.00
76358;BME280;65185;21.060;105.826;2024-03-08T02:43:14;101919.03;;;20.40;100.00
76358;BME280;65185;21.060;105.826;2024-03-08T02:45:41;101918.28;;;20.35;100.00
76358;BME280;65185;21.060;105.826;2024-03-08T02:48:08;101917.44;;;20.34;100.00
76358;BME280;65185;21.060;105.826;2024-03-08T02:50:35;101914.00;;;20.31;100.00
76358;BME280;65185;21.060;105.826;2024-03-08T02:53:03;101920.03;;;20.36;100.00
76358;BME280;65185;21.060;105.826;2024-03-08T02:55:30;101924.41;;;20.35;100.00
76358;BME280;65185;21.060;105.826;2024-03-08T02:57:57;101923.53;;;20.35;100.00
76358;BME280;65185;21.060;105.826;2024-03-08T03:00:26;101924.38;;;20.37;100.00
76358;BME280;65185;21.060;105.826;2024-03-08T03:02:53;101917.25;;;20.40;100.00
76358;BME280;65185;21.060;105.826;2024-03-08T03:05:23;101918.22;;;20.38;100.00
76358;BME280;65185;21.060;105.826;2024-03-08T03:07:51;101922.69;;;20.34;100.00
76358;BME280;65185;21.060;105.826;2024-03-08T03:10:18;101918.31;;;20.33;100.00
76358;BME280;65185;21.060;105.826;2024-03-08T03:12:48;101923.63;;;20.32;100.00
76358;BME280;65185;21.060;105.826;2024-03-08T03:15:15;101921.81;;;20.34;100.00
76358;BME280;65185;21.060;105.826;2024-03-08T03:17:48;101923.59;;;20.33;100.00
76358;BME280;65185;21.060;105.826;2024-03-08T03:20:17;101921.69;;;20.40;100.00
76358;BME280;65185;21.060;105.826;2024-03-08T03:22:52;101926.06;;;20.39;100.00
76358;BME280;65185;21.060;105.826;2024-03-08T03:25:19;101921.47;;;20.47;100.00
76358;BME280;65185;21.060;105.826;2024-03-08T03:27:55;101922.41;;;20.45;100.00
76358;BME280;65185;21.060;105.826;2024-03-08T03:30:25;101923.28;;;20.45;100.00
76358;BME280;65185;21.060;105.826;2024-03-08T03:33:02;101914.66;;;20.39;100.00
76358;BME280;65185;21.060;105.826;2024-03-08T03:35:41;101914.66;;;20.39;100.00
76358;BME280;65185;21.060;105.826;2024-03-08T03:38:09;101914.81;;;20.34;100.00
76358;BME280;65185;21.060;105.826;2024-03-08T03:40:40;101905.00;;;20.39;100.00
76358;BME280;65185;21.060;105.826;2024-03-08T03:43:07;101911.09;;;20.41;100.00
76358;BME280;65185;21.060;105.826;2024-03-08T03:45:36;101908.41;;;20.43;100.00
76358;BME280;65185;21.060;105.826;2024-03-08T03:48:04;101907.59;;;20.41;100.00
76358;BME280;65185;21.060;105.826;2024-03-08T03:50:32;101907.59;;;20.41;100.00
76358;BME280;65185;21.060;105.826;2024-03-08T03:53:00;101909.00;;;20.20;100.00
76358;BME280;65185;21.060;105.826;2024-03-08T03:55:28;101910.06;;;20.12;100.00
76358;BME280;65185;21.060;105.826;2024-03-08T03:57:55;101897.03;;;20.07;100.00
76358;BME280;65185;21.060;105.826;2024-03-08T04:00:22;101895.63;;;19.92;100.00
76358;BME280;65185;21.060;105.826;2024-03-08T04:02:48;101890.38;;;19.92;100.00
76358;BME280;65185;21.060;105.826;2024-03-08T04:05:17;101888.69;;;19.90;100.00
76358;BME280;65185;21.060;105.826;2024-03-08T04:07:43;101879.47;;;19.72;100.00
76358;BME280;65185;21.060;105.826;2024-03-08T04:10:12;101877.81;;;19.68;100.00
76358;BME280;65185;21.060;105.826;2024-03-08T04:12:38;101872.59;;;19.67;100.00
76358;BME280;65185;21.060;105.826;2024-03-08T04:15:05;101867.50;;;19.61;100.00
76358;BME280;65185;21.060;105.826;2024-03-08T04:17:36;101873.56;;;19.63;100.00
76358;BME280;65185;21.060;105.826;2024-03-08T04:20:04;101870.88;;;19.66;100.00
76358;BME280;65185;21.060;105.826;2024-03-08T04:22:38;101868.31;;;19.63;100.00
76358;BME280;65185;21.060;105.826;2024-03-08T04:25:09;101867.47;;;19.62;100.00
76358;BME280;65185;21.060;105.826;2024-03-08T04:27:39;101858.69;;;19.62;100.00
76358;BME280;65185;21.060;105.826;2024-03-08T04:30:07;101849.09;;;19.61;100.00
76358;BME280;65185;21.060;105.826;2024-03-08T04:32:37;101853.34;;;19.65;100.00
76358;BME280;65185;21.060;105.826;2024-03-08T04:35:04;101844.78;;;19.58;100.00
76358;BME280;65185;21.060;105.826;2024-03-08T04:37:30;101839.59;;;19.55;100.00
76358;BME280;65185;21.060;105.826;2024-03-08T04:39:58;101833.59;;;19.49;100.00
76358;BME280;65185;21.060;105.826;2024-03-08T04:42:25;101833.59;;;19.49;100.00
76358;BME280;65185;21.060;105.826;2024-03-08T04:44:52;101829.16;;;19.51;100.00
76358;BME280;65185;21.060;105.826;2024-03-08T04:47:22;101818.88;;;19.42;100.00
76358;BME280;65185;21.060;105.826;2024-03-08T04:49:57;101819.56;;;19.48;100.00
76358;BME280;65185;21.060;105.826;2024-03-08T04:52:24;101812.81;;;19.75;100.00
76358;BME280;65185;21.060;105.826;2024-03-08T04:54:54;101820.38;;;19.87;100.00
76358;BME280;65185;21.060;105.826;2024-03-08T04:57:20;101802.09;;;19.82;100.00
76358;BME280;65185;21.060;105.826;2024-03-08T04:59:50;101807.91;;;19.95;100.00
76358;BME280;65185;21.060;105.826;2024-03-08T05:02:16;101801.84;;;19.92;100.00
76358;BME280;65185;21.060;105.826;2024-03-08T05:04:44;101795.72;;;19.91;100.00
76358;BME280;65185;21.060;105.826;2024-03-08T05:07:10;101788.97;;;19.81;100.00
76358;BME280;65185;21.060;105.826;2024-03-08T05:09:37;101786.34;;;19.81;100.00
76358;BME280;65185;21.060;105.826;2024-03-08T05:12:06;101782.69;;;19.53;100.00
76358;BME280;65185;21.060;105.826;2024-03-08T05:14:34;101778.28;;;19.53;100.00
76358;BME280;65185;21.060;105.826;2024-03-08T05:17:01;101766.03;;;19.52;100.00
76358;BME280;65185;21.060;105.826;2024-03-08T05:19:30;101769.72;;;19.45;100.00
76358;BME280;65185;21.060;105.826;2024-03-08T05:21:57;101757.56;;;19.41;100.00
76358;BME280;65185;21.060;105.826;2024-03-08T05:24:24;101756.63;;;19.44;100.00
76358;BME280;65185;21.060;105.826;2024-03-08T05:26:50;101754.09;;;19.39;100.00
76358;BME280;65185;21.060;105.826;2024-03-08T05:29:18;101752.41;;;19.37;100.00
76358;BME280;65185;21.060;105.826;2024-03-08T05:31:50;101740.09;;;19.39;100.00
76358;BME280;65185;21.060;105.826;2024-03-08T05:34:20;101736.47;;;19.44;100.00
76358;BME280;65185;21.060;105.826;2024-03-08T05:36:48;101722.38;;;19.47;100.00
76358;BME280;65185;21.060;105.826;2024-03-08T05:39:19;101718.66;;;19.54;100.00
76358;BME280;65185;21.060;105.826;2024-03-08T05:41:46;101715.97;;;19.57;100.00
76358;BME280;65185;21.060;105.826;2024-03-08T05:44:16;101710.72;;;19.57;100.00
76358;BME280;65185;21.060;105.826;2024-03-08T05:46:42;101706.53;;;19.48;100.00
76358;BME280;65185;21.060;105.826;2024-03-08T05:49:09;101704.69;;;19.53;100.00
76358;BME280;65185;21.060;105.826;2024-03-08T05:51:40;101697.44;;;19.61;100.00
76358;BME280;65185;21.060;105.826;2024-03-08T05:54:08;101698.28;;;19.63;100.00
76358;BME280;65185;21.060;105.826;2024-03-08T05:56:39;101685.06;;;19.66;100.00
76358;BME280;65185;21.060;105.826;2024-03-08T05:59:10;101684.97;;;19.69;100.00
76358;BME280;65185;21.060;105.826;2024-03-08T06:01:39;101690.22;;;19.69;100.00
76358;BME280;65185;21.060;105.826;2024-03-08T06:04:07;101678.16;;;19.62;100.00
76358;BME280;65185;21.060;105.826;2024-03-08T06:06:33;101674.69;;;19.60;100.00
76358;BME280;65185;21.060;105.826;2024-03-08T06:09:00;101665.06;;;19.61;100.00
76358;BME280;65185;21.060;105.826;2024-03-08T06:11:34;101658.75;;;19.66;100.00
76358;BME280;65185;21.060;105.826;2024-03-08T06:14:01;101649.88;;;19.70;100.00
76358;BME280;65185;21.060;105.826;2024-03-08T06:16:28;101650.63;;;19.74;100.00
76358;BME280;65185;21.060;105.826;2024-03-08T06:18:58;101638.31;;;19.76;100.00
76358;BME280;65185;21.060;105.826;2024-03-08T06:21:25;101641.75;;;19.78;100.00
76358;BME280;65185;21.060;105.826;2024-03-08T06:23:55;101635.63;;;19.79;100.00
76358;BME280;65185;21.060;105.826;2024-03-08T06:26:24;101620.69;;;19.79;100.00
76358;BME280;65185;21.060;105.826;2024-03-08T06:28:51;101611.94;;;19.79;100.00
76358;BME280;65185;21.060;105.826;2024-03-08T06:31:18;101611.09;;;19.78;100.00
76358;BME280;65185;21.060;105.826;2024-03-08T06:33:45;101616.50;;;19.72;100.00
76358;BME280;65185;21.060;105.826;2024-03-08T06:36:12;101605.94;;;19.74;100.00
76358;BME280;65185;21.060;105.826;2024-03-08T06:38:39;101609.38;;;19.77;100.00
76358;BME280;65185;21.060;105.826;2024-03-08T06:41:12;101608.56;;;19.74;100.00
76358;BME280;65185;21.060;105.826;2024-03-08T06:43:44;101596.38;;;19.71;100.00
76358;BME280;65185;21.060;105.826;2024-03-08T06:46:12;101588.34;;;19.76;100.00
76358;BME280;65185;21.060;105.826;2024-03-08T06:48:41;101588.34;;;19.76;100.00
76358;BME280;65185;21.060;105.826;2024-03-08T06:51:08;101588.34;;;19.77;100.00
76358;BME280;65185;21.060;105.826;2024-03-08T06:53:34;101577.81;;;19.77;100.00
76358;BME280;65185;21.060;105.826;2024-03-08T06:56:02;101576.03;;;19.78;100.00
76358;BME280;65185;21.060;105.826;2024-03-08T06:58:28;101568.91;;;19.81;100.00
76358;BME280;65185;21.060;105.826;2024-03-08T07:00:55;101567.97;;;19.84;100.00
76358;BME280;65185;21.060;105.826;2024-03-08T07:03:26;101562.69;;;19.84;100.00
76358;BME280;65185;21.060;105.826;2024-03-08T07:05:56;101562.69;;;19.84;100.00
76358;BME280;65185;21.060;105.826;2024-03-08T07:08:28;101560.03;;;19.85;100.00
76358;BME280;65185;21.060;105.826;2024-03-08T07:10:55;101549.44;;;19.88;100.00
76358;BME280;65185;21.060;105.826;2024-03-08T07:13:24;101545.78;;;19.92;100.00
76358;BME280;65185;21.060;105.826;2024-03-08T07:15:50;101548.41;;;19.92;100.00
76358;BME280;65185;21.060;105.826;2024-03-08T07:18:18;101540.50;;;19.94;100.00
76358;BME280;65185;21.060;105.826;2024-03-08T07:20:44;101537.75;;;19.97;100.00
76358;BME280;65185;21.060;105.826;2024-03-08T07:23:11;101529.81;;;19.99;100.00
76358;BME280;65185;21.060;105.826;2024-03-08T07:25:58;101524.31;;;20.06;100.00
76358;BME280;65185;21.060;105.826;2024-03-08T07:28:27;101525.03;;;20.11;100.00
76358;BME280;65185;21.060;105.826;2024-03-08T07:31:00;101525.19;;;20.07;100.00
76358;BME280;65185;21.060;105.826;2024-03-08T07:33:44;101521.63;;;20.08;100.00
76358;BME280;65185;21.060;105.826;2024-03-08T07:36:10;101516.31;;;20.09;100.00
76358;BME280;65185;21.060;105.826;2024-03-08T07:38:37;101517.09;;;20.13;100.00
76358;BME280;65185;21.060;105.826;2024-03-08T07:41:04;101512.63;;;20.15;100.00
76358;BME280;65185;21.060;105.826;2024-03-08T07:43:31;101502.97;;;20.15;100.00
76358;BME280;65185;21.060;105.826;2024-03-08T07:45:58;101502.06;;;20.16;100.00
76358;BME280;65185;21.060;105.826;2024-03-08T07:48:25;101500.28;;;20.18;100.00
76358;BME280;65185;21.060;105.826;2024-03-08T07:50:53;101496.81;;;20.18;100.00
76358;BME280;65185;21.060;105.826;2024-03-08T07:53:20;101492.38;;;20.20;100.00
76358;BME280;65185;21.060;105.826;2024-03-08T07:55:46;101486.19;;;20.21;100.00
76358;BME280;65185;21.060;105.826;2024-03-08T07:58:13;101487.81;;;20.25;100.00
76358;BME280;65185;21.060;105.826;2024-03-08T08:00:46;101472.06;;;20.23;100.00
76358;BME280;65185;21.060;105.826;2024-03-08T08:03:15;101478.97;;;20.26;100.00
76358;BME280;65185;21.060;105.826;2024-03-08T08:05:47;101486.81;;;20.29;100.00
76358;BME280;65185;21.060;105.826;2024-03-08T08:08:15;101478.94;;;20.27;100.00
76358;BME280;65185;21.060;105.826;2024-03-08T08:10:41;101476.28;;;20.29;100.00
76358;BME280;65185;21.060;105.826;2024-03-08T08:13:08;101473.63;;;20.29;100.00
76358;BME280;65185;21.060;105.826;2024-03-08T08:15:35;101471.84;;;20.29;100.00
76358;BME280;65185;21.060;105.826;2024-03-08T08:18:01;101471.00;;;20.29;100.00
76358;BME280;65185;21.060;105.826;2024-03-08T08:20:31;101476.34;;;20.26;100.00
76358;BME280;65185;21.060;105.826;2024-03-08T08:22:58;101477.22;;;20.26;100.00
76358;BME280;65185;21.060;105.826;2024-03-08T08:25:25;101477.22;;;20.26;100.00
76358;BME280;65185;21.060;105.826;2024-03-08T08:27:51;101470.19;;;20.27;100.00
76358;BME280;65185;21.060;105.826;2024-03-08T08:30:20;101473.63;;;20.29;100.00
76358;BME280;65185;21.060;105.826;2024-03-08T08:32:46;101478.91;;;20.29;100.00
76358;BME280;65185;21.060;105.826;2024-03-08T08:35:14;101472.78;;;20.28;100.00
76358;BME280;65185;21.060;105.826;2024-03-08T08:37:41;101477.16;;;20.28;100.00
76358;BME280;65185;21.060;105.826;2024-03-08T08:40:08;101467.50;;;20.28;100.00
76358;BME280;65185;21.060;105.826;2024-03-08T08:42:39;101471.00;;;20.29;100.00
76358;BME280;65185;21.060;105.826;2024-03-08T08:45:06;101463.94;;;20.29;100.00
76358;BME280;65185;21.060;105.826;2024-03-08T08:47:36;101472.66;;;20.31;100.00
76358;BME280;65185;21.060;105.826;2024-03-08T08:50:04;101460.44;;;20.30;100.00
76358;BME280;65185;21.060;105.826;2024-03-08T08:52:32;101462.19;;;20.30;100.00
76358;BME280;65185;21.060;105.826;2024-03-08T08:54:58;101463.13;;;20.29;100.00
76358;BME280;65185;21.060;105.826;2024-03-08T08:57:26;101461.38;;;20.28;100.00
76358;BME280;65185;21.060;105.826;2024-03-08T08:59:54;101471.00;;;20.29;100.00
76358;BME280;65185;21.060;105.826;2024-03-08T09:02:21;101460.47;;;20.29;100.00
76358;BME280;65185;21.060;105.826;2024-03-08T09:04:48;101456.94;;;20.30;100.00
76358;BME280;65185;21.060;105.826;2024-03-08T09:07:15;101456.06;;;20.29;100.00
76358;BME280;65185;21.060;105.826;2024-03-08T09:09:44;101456.94;;;20.30;100.00
76358;BME280;65185;21.060;105.826;2024-03-08T09:12:11;101448.28;;;20.26;100.00
76358;BME280;65185;21.060;105.826;2024-03-08T09:14:42;101447.47;;;20.24;100.00
76358;BME280;65185;21.060;105.826;2024-03-08T09:17:09;101450.97;;;20.25;100.00
76358;BME280;65185;21.060;105.826;2024-03-08T09:19:35;101455.28;;;20.26;100.00
76358;BME280;65185;21.060;105.826;2024-03-08T09:22:06;101447.34;;;20.27;100.00
76358;BME280;65185;21.060;105.826;2024-03-08T09:24:32;101450.91;;;20.26;100.00
76358;BME280;65185;21.060;105.826;2024-03-08T09:26:59;101450.84;;;20.28;100.00
76358;BME280;65185;21.060;105.826;2024-03-08T09:29:26;101463.94;;;20.29;100.00
76358;BME280;65185;21.060;105.826;2024-03-08T09:31:59;101463.13;;;20.27;100.00
76358;BME280;65185;21.060;105.826;2024-03-08T09:34:26;101462.44;;;20.22;100.00
76358;BME280;65185;21.060;105.826;2024-03-08T09:36:53;101467.69;;;20.22;100.00
76358;BME280;65185;21.060;105.826;2024-03-08T09:39:20;101461.56;;;20.22;100.00
76358;BME280;65185;21.060;105.826;2024-03-08T09:41:47;101459.91;;;20.19;100.00
76358;BME280;65185;21.060;105.826;2024-03-08T09:44:16;101464.38;;;20.17;100.00
76358;BME280;65185;21.060;105.826;2024-03-08T09:46:45;101466.06;;;20.18;100.00
76358;BME280;65185;21.060;105.826;2024-03-08T09:49:17;101463.41;;;20.20;100.00
76358;BME280;65185;21.060;105.826;2024-03-08T09:51:44;101461.69;;;20.19;100.00
76358;BME280;65185;21.060;105.826;2024-03-08T09:54:13;101475.69;;;20.19;100.00
76358;BME280;65185;21.060;105.826;2024-03-08T09:56:40;101473.06;;;20.19;100.00
76358;BME280;65185;21.060;105.826;2024-03-08T09:59:08;101471.41;;;20.15;100.00
76358;BME280;65185;21.060;105.826;2024-03-08T10:01:38;101477.53;;;20.16;100.00
76358;BME280;65185;21.060;105.826;2024-03-08T10:04:05;101483.69;;;20.15;100.00
76358;BME280;65185;21.060;105.826;2024-03-08T10:06:33;101477.63;;;20.13;100.00
76358;BME280;65185;21.060;105.826;2024-03-08T10:09:00;101481.19;;;20.12;100.00
76358;BME280;65185;21.060;105.826;2024-03-08T10:11:27;101474.28;;;20.08;100.00
76358;BME280;65185;21.060;105.826;2024-03-08T10:13:53;101481.31;;;20.07;100.00
76358;BME280;65185;21.060;105.826;2024-03-08T10:16:20;101482.22;;;20.06;100.00
76358;BME280;65185;21.060;105.826;2024-03-08T10:18:51;101478.72;;;20.06;100.00
76358;BME280;65185;21.060;105.826;2024-03-08T10:21:19;101480.41;;;20.08;100.00
76358;BME280;65185;21.060;105.826;2024-03-08T10:23:46;101483.03;;;20.08;100.00
76358;BME280;65185;21.060;105.826;2024-03-08T10:26:15;101477.78;;;20.08;100.00
76358;BME280;65185;21.060;105.826;2024-03-08T10:28:48;101483.09;;;20.07;100.00
76358;BME280;65185;21.060;105.826;2024-03-08T10:31:17;101482.28;;;20.05;100.00
76358;BME280;65185;21.060;105.826;2024-03-08T10:33:44;101485.81;;;20.04;100.00
76358;BME280;65185;21.060;105.826;2024-03-08T10:36:14;101488.38;;;20.05;100.00
76358;BME280;65185;21.060;105.826;2024-03-08T10:38:43;101491.94;;;20.04;100.00
76358;BME280;65185;21.060;105.826;2024-03-08T10:41:13;101490.19;;;20.05;100.00
76358;BME280;65185;21.060;105.826;2024-03-08T10:43:52;101491.00;;;20.05;100.00
76358;BME280;65185;21.060;105.826;2024-03-08T10:48:57;101497.09;;;20.07;100.00
76358;BME280;65185;21.060;105.826;2024-03-08T10:51:26;101504.97;;;20.07;100.00
76358;BME280;65185;21.060;105.826;2024-03-08T10:53:56;101495.50;;;20.03;100.00
76358;BME280;65185;21.060;105.826;2024-03-08T10:56:24;101499.00;;;20.02;100.00
76358;BME280;65185;21.060;105.826;2024-03-08T10:58:54;101509.53;;;20.02;100.00
76358;BME280;65185;21.060;105.826;2024-03-08T11:01:21;101508.72;;;20.00;100.00
76358;BME280;65185;21.060;105.826;2024-03-08T11:03:50;101509.69;;;19.98;100.00
76358;BME280;65185;21.060;105.826;2024-03-08T11:06:30;101518.41;;;19.98;100.00
76358;BME280;65185;21.060;105.826;2024-03-08T11:09:32;101512.31;;;19.98;100.00
76358;BME280;65185;21.060;105.826;2024-03-08T11:15:09;101518.47;;;19.97;100.00
76358;BME280;65185;21.060;105.826;2024-03-08T11:17:50;101515.91;;;19.95;100.00
76358;BME280;65185;21.060;105.826;2024-03-08T11:20:17;101521.16;;;19.95;100.00
76358;BME280;65185;21.060;105.826;2024-03-08T11:22:53;101517.66;;;19.95;100.00
76358;BME280;65185;21.060;105.826;2024-03-08T11:25:37;101516.78;;;19.96;100.00
76358;BME280;65185;21.060;105.826;2024-03-08T11:28:12;101516.72;;;19.97;100.00
76358;BME280;65185;21.060;105.826;2024-03-08T11:33:30;101521.97;;;19.97;100.00
76358;BME280;65185;21.060;105.826;2024-03-08T11:36:22;101516.66;;;19.99;100.00
76358;BME280;65185;21.060;105.826;2024-03-08T11:38:51;101513.09;;;20.00;100.00
76358;BME280;65185;21.060;105.826;2024-03-08T11:41:23;101514.84;;;20.01;100.00
76358;BME280;65185;21.060;105.826;2024-03-08T11:44:02;101517.44;;;20.02;100.00
76358;BME280;65185;21.060;105.826;2024-03-08T11:46:33;101515.72;;;20.01;100.00
76358;BME280;65185;21.060;105.826;2024-03-08T11:49:00;101516.63;;;20.00;100.00
76358;BME280;65185;21.060;105.826;2024-03-08T11:51:27;101514.97;;;19.98;100.00
76358;BME280;65185;21.060;105.826;2024-03-08T11:53:54;101513.97;;;20.00;100.00
76358;BME280;65185;21.060;105.826;2024-03-08T11:56:21;101518.28;;;20.03;100.00
76358;BME280;65185;21.060;105.826;2024-03-08T11:58:55;101516.53;;;20.03;100.00
76358;BME280;65185;21.060;105.826;2024-03-08T12:01:23;101520.06;;;20.02;100.00
76358;BME280;65185;21.060;105.826;2024-03-08T12:03:57;101515.66;;;20.03;100.00
76358;BME280;65185;21.060;105.826;2024-03-08T12:06:37;101522.63;;;20.04;100.00
76358;BME280;65185;21.060;105.826;2024-03-08T12:09:13;101519.13;;;20.05;100.00
76358;BME280;65185;21.060;105.826;2024-03-08T12:11:41;101527.00;;;20.05;100.00
76358;BME280;65185;21.060;105.826;2024-03-08T12:14:09;101527.00;;;20.05;100.00
76358;BME280;65185;21.060;105.826;2024-03-08T12:16:39;101533.09;;;20.07;100.00
76358;BME280;65185;21.060;105.826;2024-03-08T12:19:10;101534.78;;;20.08;100.00
76358;BME280;65185;21.060;105.826;2024-03-08T12:21:37;101534.78;;;20.08;100.00
76358;BME280;65185;21.060;105.826;2024-03-08T12:24:09;101543.59;;;20.07;100.00
76358;BME280;65185;21.060;105.826;2024-03-08T12:26:38;101537.47;;;20.06;100.00
76358;BME280;65185;21.060;105.826;2024-03-08T12:29:16;101548.88;;;20.07;100.00
76358;BME280;65185;21.060;105.826;2024-03-08T12:31:44;101553.25;;;20.06;100.00
76358;BME280;65185;21.060;105.826;2024-03-08T12:34:12;101567.25;;;20.08;100.00
76358;BME280;65185;21.060;105.826;2024-03-08T12:36:47;101572.50;;;20.08;100.00